KDMA/DMA METAR and TAF weather

Enter ICAO airport designator
Station Type Date Time Source
KDMA METAR 2021/04/13 22:03 UTC NOAA

KDMA 132203Z AUTO 18014G22KT 10SM FEW190 29/M12 A2976 RMK AO2 WSHFT 00 SLP040 $


Station Type Date Time Source
KDMA Decoded METAR 2021/04/13 22:03 UTC NOAA

Davis-Monthan Air Force Base, AZ, United States (KDMA) 32-10N 110-53W
Apr 13, 2021 - 06:03 PM EDT / 2021.04.13 2203 UTC
Wind: from the S (180 degrees) at 16 MPH (14 KT) gusting to 25 MPH (22 KT):0
Visibility: 10 mile(s):0
Sky conditions: mostly clear
Temperature: 84 F (29 C)
Dew Point: 10 F (-12 C)
Relative Humidity: 6%
Pressure (altimeter): 29.76 in. Hg (1007 hPa)
ob: KDMA 132203Z AUTO 18014G22KT 10SM FEW190 29/M12 A2976 RMK AO2 WSHFT 00 SLP040
cycle: 22

Station Type Date Time Source
KDMA TAF 2021/04/13 22:18 UTC NOAA

TAF TAF KDMA 132208Z 1322/1504 20012G18KT 9999 FEW260 QNH2978INS
TEMPO 1322/1402 22015G27KT 520009
BECMG 1402/1403 25009KT 9999 SCT240 QNH2983INS
BECMG 1405/1406 VRB06KT 9999 SCT230 QNH2986INS
BECMG 1415/1416 19012G18KT 9999 FEW270 QNH2991INS
BECMG 1417/1418 22012G18KT 9999 SCT260 QNH2983INS TX30/1322Z TN12/1406Z

Example: see airport list